Time;durP1;ratioP1;P1;durP2;ratioP2;P2;SDS_P1;SDS_P2;PMS_P1;PMS_P2;Temp;Humidity;BMP_temperature;BMP_pressure;BME280_temperature;BME280_humidity;BME280_pressure;Samples;Min_cycle;Max_cycle;Signal;HPM_P1;HPM_P2
2022/12/15 00:41:05;;;;;;;45.93;26.67;;;-4.20;99.90;;;;;;5074374;28;20509;-56
2022/12/15 00:43:35;;;;;;;45.55;26.60;;;-4.10;99.90;;;;;;5073987;28;20407;-54
2022/12/15 00:48:48;;;;;;;44.70;26.42;;;-4.10;99.90;;;;;;5073917;28;20495;-54
2022/12/15 00:51:16;;;;;;;45.80;26.67;;;-4.30;99.90;;;;;;5074036;28;20415;-56
2022/12/15 01:21:11;;;;;;;45.65;26.27;;;-4.70;99.90;;;;;;5053316;28;20447;-54
2022/12/15 01:23:40;;;;;;;50.05;28.13;;;-4.60;99.90;;;;;;5053034;28;20413;-52
2022/12/15 01:26:08;;;;;;;49.70;27.48;;;-4.70;99.90;;;;;;5053174;28;20414;-51
2022/12/15 01:28:34;;;;;;;51.83;28.30;;;-4.70;99.90;;;;;;5052741;28;20829;-53
2022/12/15 01:31:01;;;;;;;47.93;27.37;;;-4.80;99.90;;;;;;5053163;28;20475;-53
2022/12/15 01:33:28;;;;;;;50.33;27.92;;;-4.70;99.90;;;;;;5052683;28;20414;-51
2022/12/15 01:35:56;;;;;;;50.42;27.60;;;-4.70;99.90;;;;;;5054344;28;20901;-53
2022/12/15 01:38:23;;;;;;;46.10;27.38;;;-4.80;99.90;;;;;;5067119;28;20420;-53
2022/12/15 01:40:53;;;;;;;47.55;26.33;;;-4.60;99.90;;;;;;5053169;28;20413;-50
2022/12/15 01:43:22;;;;;;;45.20;25.83;;;-4.60;99.90;;;;;;5052596;28;20787;-55
2022/12/15 01:45:59;;;;;;;45.47;25.70;;;-4.50;99.90;;;;;;5052895;28;20417;-54
2022/12/15 01:48:32;;;;;;;42.85;25.38;;;-4.70;99.90;;;;;;5052831;28;20421;-56
2022/12/15 01:51:05;;;;;;;43.42;25.20;;;-4.70;99.90;;;;;;5052856;28;20409;-53
2022/12/15 01:53:36;;;;;;;44.25;25.40;;;-4.70;99.90;;;;;;5052553;28;20420;-54
2022/12/15 01:56:05;;;;;;;48.03;26.45;;;-4.70;99.90;;;;;;5052529;28;20417;-51
2022/12/15 01:58:32;;;;;;;44.88;25.90;;;-4.70;99.90;;;;;;5052361;28;20417;-54
2022/12/15 02:01:01;;;;;;;44.15;25.23;;;-4.70;99.90;;;;;;5052721;28;20420;-55
2022/12/15 02:03:28;;;;;;;39.13;24.15;;;-4.50;99.90;;;;;;5052645;28;20421;-54
2022/12/15 02:05:56;;;;;;;41.63;23.73;;;-4.40;99.90;;;;;;5053728;28;20488;-53
2022/12/15 02:08:23;;;;;;;40.67;25.00;;;-4.50;99.90;;;;;;5063972;28;20416;-51
2022/12/15 02:11:05;;;;;;;43.17;26.58;;;-4.50;99.90;;;;;;5072364;28;20461;-55
2022/12/15 02:13:40;;;;;;;45.25;26.63;;;-4.70;99.90;;;;;;5072401;28;20414;-55
2022/12/15 02:16:18;;;;;;;44.67;25.33;;;-4.70;99.90;;;;;;5071889;28;21084;-53
2022/12/15 02:18:53;;;;;;;44.42;25.40;;;-4.70;99.90;;;;;;5072359;28;20494;-56
2022/12/15 02:21:27;;;;;;;41.20;24.00;;;-4.60;99.90;;;;;;5071951;28;20420;-54
2022/12/15 02:24:18;;;;;;;40.38;24.52;;;-4.40;99.90;;;;;;5072570;28;20407;-53
2022/12/15 02:27:15;;;;;;;43.08;25.77;;;-4.30;99.90;;;;;;5072113;28;20415;-55
2022/12/15 02:30:18;;;;;;;42.15;25.08;;;-4.60;99.90;;;;;;5071839;28;20408;-56
2022/12/15 02:32:52;;;;;;;44.63;26.70;;;-4.60;99.90;;;;;;5072234;28;20772;-56
2022/12/15 02:35:25;;;;;;;45.45;26.40;;;-4.70;99.90;;;;;;5071844;28;20478;-55
2022/12/15 02:37:53;;;;;;;43.40;25.67;;;-4.60;99.90;;;;;;5061804;28;20821;-53
2022/12/15 02:40:19;;;;;;;51.85;28.50;;;-4.70;99.90;;;;;;5051439;28;20887;-56
2022/12/15 02:42:51;;;;;;;47.67;26.75;;;-4.80;99.90;;;;;;5051739;28;20413;-53
2022/12/15 02:45:23;;;;;;;45.03;27.40;;;-4.80;99.90;;;;;;5050987;28;20417;-53
2022/12/15 02:47:59;;;;;;;44.30;26.40;;;-4.70;99.90;;;;;;5051624;28;20420;-51
2022/12/15 02:50:50;;;;;;;46.47;27.27;;;-4.70;99.90;;;;;;5051851;28;20503;-54
2022/12/15 02:53:30;;;;;;;46.42;27.45;;;-4.70;99.90;;;;;;5051831;28;20417;-56
2022/12/15 02:56:05;;;;;;;48.78;27.85;;;-4.80;99.90;;;;;;5051256;28;20461;-55
2022/12/15 02:58:39;;;;;;;43.70;26.20;;;-4.90;99.90;;;;;;5051323;28;20413;-56
2022/12/15 03:01:11;;;;;;;45.90;27.17;;;-4.80;99.90;;;;;;5051271;28;20471;-56
2022/12/15 03:03:39;;;;;;;47.55;26.58;;;-4.80;99.90;;;;;;5051473;28;20765;-56
2022/12/15 03:06:06;;;;;;;49.13;27.08;;;-4.80;99.90;;;;;;5054242;28;20829;-56
2022/12/15 03:08:33;;;;;;;44.92;26.95;;;-4.80;99.90;;;;;;5062805;28;20959;-53
2022/12/15 03:11:01;;;;;;;45.08;25.77;;;-4.80;99.90;;;;;;5071325;28;21101;-53
2022/12/15 03:13:28;;;;;;;41.50;24.77;;;-4.70;99.90;;;;;;5071264;28;21014;-55
2022/12/15 03:15:54;;;;;;;44.05;25.77;;;-4.60;99.90;;;;;;5070821;28;20837;-56
2022/12/15 03:18:22;;;;;;;42.27;24.70;;;-4.60;99.90;;;;;;5071243;28;20579;-55
2022/12/15 03:20:49;;;;;;;42.30;25.67;;;-4.60;99.90;;;;;;5070906;28;20890;-56
2022/12/15 03:23:16;;;;;;;43.17;24.85;;;-4.60;99.90;;;;;;5071055;28;20419;-53
2022/12/15 03:25:44;;;;;;;41.45;24.27;;;-4.50;99.90;;;;;;5070953;28;20411;-54
2022/12/15 03:28:11;;;;;;;45.90;26.35;;;-4.50;99.90;;;;;;5070535;28;20420;-54
2022/12/15 03:30:38;;;;;;;44.63;25.35;;;-4.60;99.90;;;;;;5070814;28;20883;-55
2022/12/15 03:33:05;;;;;;;43.03;26.20;;;-4.70;99.90;;;;;;5070762;28;20833;-55
2022/12/15 03:35:33;;;;;;;46.58;25.30;;;-4.70;99.90;;;;;;5070708;28;20431;-55
2022/12/15 03:38:00;;;;;;;45.45;24.40;;;-4.70;99.90;;;;;;5059910;28;20490;-50
2022/12/15 03:40:27;;;;;;;47.50;25.48;;;-4.60;99.90;;;;;;5050750;28;20968;-51
2022/12/15 03:42:53;;;;;;;47.63;26.13;;;-4.70;99.90;;;;;;5051022;28;20815;-55
2022/12/15 03:45:23;;;;;;;46.53;26.65;;;-4.70;99.90;;;;;;5050304;28;21127;-55
2022/12/15 03:47:50;;;;;;;44.30;26.00;;;-4.80;99.90;;;;;;5050634;28;20424;-56
2022/12/15 03:50:19;;;;;;;45.05;26.23;;;-4.70;99.90;;;;;;5050783;28;20436;-55
2022/12/15 03:52:50;;;;;;;46.03;25.23;;;-4.70;99.90;;;;;;5050767;28;20420;-51
2022/12/15 03:55:18;;;;;;;42.58;25.80;;;-4.80;99.90;;;;;;5049987;28;20512;-54
2022/12/15 03:57:44;;;;;;;43.33;25.73;;;-4.80;99.90;;;;;;5049551;28;20592;-56
2022/12/15 04:00:13;;;;;;;43.95;26.58;;;-4.90;99.90;;;;;;5050618;28;20490;-55
2022/12/15 04:02:40;;;;;;;46.95;26.13;;;-4.90;99.90;;;;;;5050269;28;20425;-52
2022/12/15 04:05:08;;;;;;;47.20;26.10;;;-5.00;99.90;;;;;;5050184;28;20872;-53
2022/12/15 04:07:35;;;;;;;43.50;26.10;;;-5.00;99.90;;;;;;5058074;28;20424;-52
2022/12/15 04:10:03;;;;;;;42.42;24.95;;;-4.90;99.90;;;;;;5069594;28;20415;-54
2022/12/15 04:12:30;;;;;;;43.75;26.60;;;-4.80;99.90;;;;;;5070683;28;20416;-54
2022/12/15 04:14:56;;;;;;;40.50;24.75;;;-4.90;99.90;;;;;;5070417;28;20423;-54
2022/12/15 04:17:23;;;;;;;42.22;25.27;;;-4.90;99.90;;;;;;5070163;28;20415;-53
2022/12/15 04:22:34;;;;;;;41.08;24.77;;;-4.80;99.90;;;;;;5070332;28;20415;-50
2022/12/15 05:33:39;;;;;;;33.72;22.27;;;-4.60;99.90;;;;;;5073135;28;20829;-56
2022/12/15 05:36:08;;;;;;;35.70;21.80;;;-4.60;99.90;;;;;;5069788;28;20907;-53
2022/12/15 05:38:34;;;;;;;34.17;21.13;;;-4.50;99.90;;;;;;5060885;28;20416;-57
2022/12/15 05:41:01;;;;;;;37.38;23.42;;;-4.60;99.90;;;;;;5052943;28;20911;-54
2022/12/15 05:43:28;;;;;;;39.83;23.13;;;-4.70;99.90;;;;;;5052694;28;20413;-55
2022/12/15 05:45:56;;;;;;;39.27;22.90;;;-4.80;99.90;;;;;;5052823;28;20475;-56
2022/12/15 05:48:23;;;;;;;34.67;22.42;;;-4.80;99.90;;;;;;5052698;28;20424;-53
2022/12/15 05:50:49;;;;;;;36.08;23.27;;;-4.80;99.90;;;;;;5052884;28;20413;-54
2022/12/15 05:53:16;;;;;;;37.17;22.63;;;-4.90;99.90;;;;;;5052540;28;20844;-56
2022/12/15 05:55:42;;;;;;;38.47;23.92;;;-4.80;99.90;;;;;;5051717;28;20425;-56
2022/12/15 05:58:09;;;;;;;40.42;24.88;;;-4.90;99.90;;;;;;5063962;28;20466;-53
2022/12/15 06:00:36;;;;;;;43.77;24.77;;;-5.00;99.90;;;;;;5064132;28;20407;-56
2022/12/15 06:03:04;;;;;;;42.57;25.13;;;-4.90;99.90;;;;;;5060108;28;20956;-56
2022/12/15 06:05:31;;;;;;;38.83;23.80;;;-4.90;99.90;;;;;;5065788;28;20472;-55
2022/12/15 06:07:59;;;;;;;40.75;25.35;;;-4.80;99.90;;;;;;5061703;28;20890;-55
2022/12/15 06:10:26;;;;;;;42.03;24.65;;;-4.80;99.90;;;;;;5051566;28;20420;-54
2022/12/15 06:12:53;;;;;;;45.42;25.58;;;-4.80;99.90;;;;;;5052308;28;20884;-54
2022/12/15 06:15:19;;;;;;;41.50;25.15;;;-4.90;99.90;;;;;;5051677;28;20428;-53
2022/12/15 06:17:46;;;;;;;39.63;24.80;;;-4.80;99.90;;;;;;5052120;28;20413;-56
2022/12/15 06:20:14;;;;;;;41.88;24.77;;;-4.80;99.90;;;;;;5050823;28;20413;-52
2022/12/15 06:22:41;;;;;;;37.38;23.60;;;-4.70;99.90;;;;;;5050532;28;20428;-56
2022/12/15 06:25:08;;;;;;;39.03;23.35;;;-4.60;99.90;;;;;;5059569;28;20405;-57
2022/12/15 06:27:36;;;;;;;38.53;23.05;;;-4.60;99.90;;;;;;5059725;28;20467;-62
2022/12/15 06:30:04;;;;;;;35.13;23.27;;;-4.50;99.90;;;;;;5059588;28;20502;-62
2022/12/15 06:32:30;;;;;;;38.42;23.95;;;-4.50;99.90;;;;;;5065929;28;20419;-64
2022/12/15 06:34:57;;;;;;;41.08;24.42;;;-4.50;99.90;;;;;;5071255;28;20427;-64
2022/12/15 06:37:25;;;;;;;37.33;24.00;;;-4.60;99.90;;;;;;5062143;28;20518;-62
2022/12/15 06:39:52;;;;;;;36.03;22.77;;;-4.60;99.90;;;;;;5052132;28;20417;-63
2022/12/15 06:42:18;;;;;;;38.28;22.40;;;-4.50;99.90;;;;;;5051101;28;20413;-64
2022/12/15 06:44:45;;;;;;;37.00;23.02;;;-4.60;98.80;;;;;;5059106;28;20465;-62
2022/12/15 06:47:12;;;;;;;36.08;23.05;;;-4.60;99.90;;;;;;5062845;28;20420;-64
2022/12/15 06:49:38;;;;;;;38.67;22.35;;;-4.50;99.90;;;;;;5071939;28;20431;-64
2022/12/15 06:52:05;;;;;;;34.00;22.00;;;-4.50;99.70;;;;;;5068015;28;20952;-59
2022/12/15 06:54:33;;;;;;;39.00;23.90;;;-4.50;96.20;;;;;;5058780;28;20447;-58
2022/12/15 06:57:00;;;;;;;37.58;23.02;;;-4.60;96.30;;;;;;5050898;28;20429;-55
2022/12/15 06:59:26;;;;;;;37.55;24.50;;;-4.60;99.90;;;;;;5050625;28;20421;-57
2022/12/15 07:01:53;;;;;;;35.47;23.53;;;-4.60;99.90;;;;;;5051092;28;20421;-60
2022/12/15 07:04:20;;;;;;;38.15;24.10;;;-4.60;99.90;;;;;;5050174;28;20933;-58
2022/12/15 07:06:46;;;;;;;38.80;23.65;;;-4.60;99.90;;;;;;5058627;28;20412;-58
2022/12/15 07:09:16;;;;;;;38.50;24.57;;;-4.60;99.90;;;;;;5062301;28;21101;-61
2022/12/15 07:11:44;;;;;;;42.67;25.25;;;-4.60;99.90;;;;;;5071151;28;20494;-61
2022/12/15 07:14:11;;;;;;;40.00;25.67;;;-4.70;99.90;;;;;;5070547;28;20779;-61
2022/12/15 07:16:37;;;;;;;40.13;25.50;;;-4.70;99.90;;;;;;5069792;28;20508;-61
2022/12/15 07:19:04;;;;;;;44.83;26.30;;;-4.70;99.90;;;;;;5067185;28;20470;-60
2022/12/15 07:21:31;;;;;;;42.20;26.58;;;-4.80;99.90;;;;;;5057316;28;20413;-62
2022/12/15 07:23:58;;;;;;;39.45;25.27;;;-4.70;99.90;;;;;;5068491;28;20409;-60
2022/12/15 07:26:25;;;;;;;39.70;25.90;;;-4.60;99.90;;;;;;5069944;28;20416;-61
2022/12/15 07:28:53;;;;;;;42.58;26.80;;;-4.70;99.90;;;;;;5070441;28;20411;-59
2022/12/15 07:31:20;;;;;;;43.75;26.55;;;-4.60;99.90;;;;;;5069838;28;20944;-58
2022/12/15 07:33:47;;;;;;;42.30;26.55;;;-4.70;99.90;;;;;;5069265;28;20415;-59
2022/12/15 07:36:14;;;;;;;41.08;27.25;;;-4.70;99.90;;;;;;5058191;28;20427;-57
2022/12/15 07:38:41;;;;;;;38.88;26.60;;;-4.70;99.90;;;;;;5057861;28;20421;-58
2022/12/15 07:41:09;;;;;;;42.88;26.05;;;-4.60;99.90;;;;;;5050004;28;20409;-57
2022/12/15 07:43:37;;;;;;;42.33;26.60;;;-4.60;99.90;;;;;;5049630;28;20620;-56
2022/12/15 07:46:05;;;;;;;41.03;25.85;;;-4.70;99.90;;;;;;5049868;28;20413;-58
2022/12/15 07:48:32;;;;;;;42.03;26.17;;;-4.60;99.90;;;;;;5049286;28;20433;-58
2022/12/15 07:51:04;;;;;;;41.40;26.63;;;-4.60;99.90;;;;;;5050151;28;20417;-57
2022/12/15 07:53:30;;;;;;;43.95;26.80;;;-4.70;99.90;;;;;;5049899;28;20416;-58
2022/12/15 07:55:59;;;;;;;42.38;26.42;;;-4.70;99.90;;;;;;5057583;28;20428;-57
2022/12/15 07:58:26;;;;;;;41.35;26.77;;;-4.70;99.90;;;;;;5056382;28;20444;-58
2022/12/15 08:00:53;;;;;;;43.17;26.02;;;-4.70;99.90;;;;;;5058607;28;20421;-59
2022/12/15 08:03:21;;;;;;;41.35;26.23;;;-4.60;99.90;;;;;;5061257;28;20415;-60
2022/12/15 08:05:48;;;;;;;40.35;25.48;;;-4.60;99.90;;;;;;5052406;28;20413;-58
2022/12/15 08:08:16;;;;;;;41.75;25.38;;;-4.50;99.90;;;;;;5062408;28;20438;-60
2022/12/15 08:10:42;;;;;;;38.97;25.30;;;-4.40;99.90;;;;;;5069749;28;20419;-60
2022/12/15 08:13:09;;;;;;;41.63;25.33;;;-4.50;99.90;;;;;;5070490;28;20473;-59
2022/12/15 08:15:36;;;;;;;39.67;25.38;;;-4.50;99.90;;;;;;5069976;28;20432;-60
2022/12/15 08:18:04;;;;;;;39.42;26.42;;;-4.40;99.90;;;;;;5069608;28;20460;-60
2022/12/15 08:20:32;;;;;;;41.33;24.90;;;-4.40;99.90;;;;;;5069809;28;20449;-60
2022/12/15 08:22:59;;;;;;;41.15;25.55;;;-4.30;99.90;;;;;;5058578;28;20419;-56
2022/12/15 08:25:27;;;;;;;41.00;26.25;;;-4.40;99.40;;;;;;5049696;28;20448;-56
2022/12/15 08:27:54;;;;;;;40.92;25.63;;;-4.30;99.90;;;;;;5048942;28;20491;-57
2022/12/15 08:30:21;;;;;;;39.97;26.05;;;-4.30;98.90;;;;;;5049484;28;20412;-57
2022/12/15 08:32:47;;;;;;;40.67;26.25;;;-4.20;99.80;;;;;;5049161;28;20419;-57
2022/12/15 08:35:14;;;;;;;40.47;25.40;;;-4.30;98.60;;;;;;5049161;28;20421;-55
2022/12/15 08:37:42;;;;;;;39.58;25.60;;;-4.20;99.80;;;;;;5057405;28;21026;-57
2022/12/15 08:40:10;;;;;;;38.28;25.20;;;-4.20;98.30;;;;;;5069292;28;20454;-52
2022/12/15 08:42:37;;;;;;;40.78;25.70;;;-4.00;98.90;;;;;;5070282;28;20415;-56
2022/12/15 08:45:05;;;;;;;39.85;25.38;;;-4.00;96.20;;;;;;5072964;28;20818;-53
2022/12/15 08:47:32;;;;;;;42.70;27.08;;;-4.00;92.80;;;;;;5073339;28;20423;-57
2022/12/15 08:49:59;;;;;;;37.83;25.60;;;-4.00;91.30;;;;;;5072554;28;20411;-56
2022/12/15 08:52:26;;;;;;;40.70;26.00;;;-3.90;94.10;;;;;;5073509;28;20447;-57
2022/12/15 08:54:54;;;;;;;38.25;25.70;;;-3.90;91.10;;;;;;5071951;28;20415;-53
2022/12/15 08:57:21;;;;;;;38.90;24.17;;;-3.60;93.40;;;;;;5060336;28;20482;-55
2022/12/15 08:59:47;;;;;;;39.40;24.85;;;-3.50;91.70;;;;;;5053521;28;20417;-52
2022/12/15 09:02:15;;;;;;;37.70;24.75;;;-3.60;78.60;;;;;;5053016;28;20409;-58
2022/12/15 09:04:44;;;;;;;40.17;25.42;;;-3.50;77.00;;;;;;5052862;28;20427;-56
2022/12/15 09:07:10;;;;;;;36.53;25.17;;;-3.40;71.70;;;;;;5060304;28;21001;-57
2022/12/15 09:09:37;;;;;;;39.03;25.42;;;-3.50;63.40;;;;;;5068569;28;20419;-57
2022/12/15 09:12:06;;;;;;;38.35;24.23;;;-3.30;69.30;;;;;;5072613;28;20467;-57
2022/12/15 09:14:33;;;;;;;37.95;24.55;;;-3.30;54.60;;;;;;5072628;28;20886;-57
2022/12/15 09:16:59;;;;;;;35.63;24.70;;;-3.20;51.60;;;;;;5072709;28;20431;-59
2022/12/15 09:19:26;;;;;;;37.45;23.45;;;-3.20;44.70;;;;;;5072189;28;20473;-55
2022/12/15 09:21:53;;;;;;;38.38;25.13;;;-3.10;48.50;;;;;;5072782;28;20423;-59
2022/12/15 09:24:20;;;;;;;34.63;23.15;;;-3.00;47.70;;;;;;5071705;28;20817;-60
2022/12/15 09:26:46;;;;;;;33.28;23.90;;;-2.90;35.40;;;;;;5072256;28;20438;-60
2022/12/15 09:29:15;;;;;;;35.40;23.20;;;-2.80;24.50;;;;;;5072003;28;20442;-60
2022/12/15 09:31:43;;;;;;;35.17;23.67;;;-2.80;19.50;;;;;;5072806;28;20873;-61
2022/12/15 09:34:14;;;;;;;38.08;23.70;;;-2.90;11.90;;;;;;5072178;28;20426;-61
2022/12/15 09:36:41;;;;;;;33.05;23.02;;;-2.90;8.00;;;;;;5064214;28;20433;-57
2022/12/15 09:39:10;;;;;;;36.08;23.48;;;-2.80;6.00;;;;;;5060472;28;20421;-57
2022/12/15 09:41:39;;;;;;;37.38;23.17;;;-2.80;6.90;;;;;;5052159;28;20422;-51
2022/12/15 09:44:10;;;;;;;36.08;23.13;;;-2.70;1.00;;;;;;5052364;28;20425;-57
2022/12/15 09:46:52;;;;;;;40.25;23.42;;;-2.70;5.20;;;;;;5051805;28;20828;-53
2022/12/15 09:49:30;;;;;;;38.22;23.75;;;-2.60;1.00;;;;;;5052088;28;20421;-54
2022/12/15 09:52:03;;;;;;;38.17;23.50;;;-2.50;1.00;;;;;;5052017;28;20422;-54
2022/12/15 09:54:33;;;;;;;37.83;23.42;;;-2.40;1.00;;;;;;5052013;28;20409;-55
2022/12/15 09:57:05;;;;;;;37.20;23.23;;;-2.40;1.00;;;;;;5061340;28;20487;-59
2022/12/15 09:59:37;;;;;;;35.42;23.20;;;-2.40;1.00;;;;;;5072009;28;20914;-58
2022/12/15 10:02:24;;;;;;;36.42;23.20;;;-2.20;1.00;;;;;;5071972;28;20825;-57
2022/12/15 10:05:02;;;;;;;35.87;23.13;;;-2.30;1.00;;;;;;5072122;28;20411;-57
2022/12/15 10:07:33;;;;;;;38.58;24.40;;;-2.20;1.00;;;;;;5063207;28;21042;-58
2022/12/15 10:10:06;;;;;;;39.40;23.67;;;-2.10;1.00;;;;;;5052933;28;20508;-58
2022/12/15 10:12:37;;;;;;;36.23;22.30;;;-2.10;1.00;;;;;;5051925;28;20425;-51
2022/12/15 10:15:13;;;;;;;37.88;23.52;;;-1.90;1.00;;;;;;5051323;28;20405;-53
2022/12/15 10:17:48;;;;;;;35.30;22.48;;;-1.70;1.00;;;;;;5051892;28;20456;-58
2022/12/15 10:20:19;;;;;;;36.22;23.42;;;-1.80;1.00;;;;;;5051557;28;20499;-56
2022/12/15 10:22:46;;;;;;;36.15;23.02;;;-1.70;1.00;;;;;;5051312;28;20417;-53
2022/12/15 10:25:17;;;;;;;34.20;22.20;;;-1.70;1.00;;;;;;5051052;28;20533;-55
2022/12/15 10:28:10;;;;;;;35.60;22.27;;;-1.70;1.00;;;;;;5051463;28;20416;-54
2022/12/15 10:30:42;;;;;;;39.15;23.85;;;-1.60;1.00;;;;;;5051099;28;20420;-57
2022/12/15 10:33:18;;;;;;;35.53;23.08;;;-1.40;1.00;;;;;;5051310;28;20413;-58
2022/12/15 10:35:46;;;;;;;37.78;23.30;;;-1.40;1.00;;;;;;5050980;28;20424;-56
2022/12/15 10:38:25;;;;;;;34.43;21.90;;;-1.30;1.00;;;;;;5062623;28;20415;-54
2022/12/15 10:40:54;;;;;;;36.10;22.65;;;-1.00;1.00;;;;;;5071445;28;20420;-58
2022/12/15 10:43:28;;;;;;;33.03;21.98;;;-1.00;1.00;;;;;;5070502;28;20448;-58
2022/12/15 10:46:06;;;;;;;34.22;21.38;;;-1.00;1.00;;;;;;5070973;28;20411;-56
2022/12/15 10:48:34;;;;;;;33.70;21.80;;;-0.90;1.00;;;;;;5070665;28;20445;-56
2022/12/15 10:51:26;;;;;;;36.15;22.40;;;-0.80;1.00;;;;;;5071519;28;20410;-57
2022/12/15 10:53:54;;;;;;;35.03;22.30;;;-0.80;1.00;;;;;;5066962;28;20416;-59
2022/12/15 10:56:24;;;;;;;34.80;21.70;;;-0.70;1.00;;;;;;5069702;28;20432;-56
2022/12/15 10:58:53;;;;;;;34.83;22.38;;;-0.70;1.00;;;;;;5052727;28;20421;-59
2022/12/15 11:01:24;;;;;;;33.00;21.15;;;-0.70;1.00;;;;;;5057901;28;20457;-58
2022/12/15 11:03:52;;;;;;;34.88;22.48;;;-0.50;1.00;;;;;;5050817;28;20413;-55
2022/12/15 11:06:21;;;;;;;34.35;22.08;;;-0.50;1.00;;;;;;5058543;28;20422;-54
2022/12/15 11:08:50;;;;;;;35.00;21.17;;;-0.40;1.00;;;;;;5061770;28;20414;-56
2022/12/15 11:14:16;;;;;;;36.20;21.92;;;0.20;1.00;;;;;;5058638;28;20401;-59
2022/12/15 11:16:47;;;;;;;35.75;22.08;;;0.00;1.00;;;;;;5057516;28;20985;-58
2022/12/15 11:19:26;;;;;;;34.17;22.07;;;0.00;1.00;;;;;;5062901;28;20412;-58
2022/12/15 11:21:58;;;;;;;34.28;21.67;;;-0.20;1.00;;;;;;5069890;28;20419;-58
2022/12/15 11:24:33;;;;;;;32.08;20.02;;;-0.10;1.00;;;;;;5061945;28;20407;-51
2022/12/15 11:27:08;;;;;;;31.63;21.00;;;0.30;99.90;;;;;;5061346;28;20483;-58
2022/12/15 11:29:46;;;;;;;32.95;21.20;;;0.50;99.90;;;;;;5070120;28;20419;-55
2022/12/15 11:32:14;;;;;;;33.75;21.60;;;0.60;99.90;;;;;;5070056;28;20488;-57
2022/12/15 11:34:45;;;;;;;33.03;21.27;;;0.70;99.90;;;;;;5062364;28;20421;-57
2022/12/15 11:37:31;;;;;;;36.65;22.67;;;0.60;99.90;;;;;;5061603;28;20435;-51
2022/12/15 11:40:14;;;;;;;34.40;21.23;;;0.50;99.90;;;;;;5052220;28;20421;-54
2022/12/15 11:42:54;;;;;;;36.28;22.15;;;0.50;99.90;;;;;;5050534;28;20929;-54
2022/12/15 11:45:25;;;;;;;34.85;21.48;;;0.60;99.90;;;;;;5055763;28;20411;-58
2022/12/15 11:47:58;;;;;;;34.92;21.40;;;0.70;99.90;;;;;;5052528;28;20820;-59
2022/12/15 11:50:30;;;;;;;36.20;20.98;;;0.80;99.90;;;;;;5055261;28;20477;-56
2022/12/15 11:53:23;;;;;;;34.17;21.33;;;1.00;99.90;;;;;;5059433;28;20426;-59
2022/12/15 11:55:59;;;;;;;34.05;21.38;;;1.20;99.90;;;;;;5057477;28;20463;-58
2022/12/15 11:58:50;;;;;;;35.45;21.70;;;1.30;99.90;;;;;;5049557;28;20422;-61
2022/12/15 12:01:30;;;;;;;37.25;23.00;;;1.30;99.90;;;;;;5049401;28;20494;-62
2022/12/15 12:04:08;;;;;;;34.03;21.83;;;1.20;92.40;;;;;;5049807;28;20413;-57
2022/12/15 12:06:46;;;;;;;35.63;22.88;;;1.10;90.90;;;;;;5056082;28;20411;-58
2022/12/15 12:09:30;;;;;;;34.97;21.92;;;1.30;99.90;;;;;;5061899;28;20415;-55
2022/12/15 12:12:05;;;;;;;36.03;23.10;;;1.20;1.00;;;;;;5069370;28;20491;-57
2022/12/15 12:14:55;;;;;;;36.17;22.75;;;1.30;1.00;;;;;;5069407;28;20485;-57
2022/12/15 12:17:35;;;;;;;36.20;22.83;;;1.40;1.00;;;;;;5069161;28;20800;-55
2022/12/15 12:20:08;;;;;;;36.00;22.60;;;1.40;92.80;;;;;;5074235;28;20411;-57
2022/12/15 12:22:42;;;;;;;36.17;22.75;;;1.60;99.90;;;;;;5073378;28;20442;-53
2022/12/15 12:25:14;;;;;;;36.13;22.67;;;1.80;78.90;;;;;;5073455;28;20502;-59
2022/12/15 12:27:48;;;;;;;37.42;22.77;;;1.70;1.00;;;;;;5073131;28;21019;-59
2022/12/15 12:30:17;;;;;;;35.85;22.50;;;1.60;1.00;;;;;;5073773;28;20774;-59
2022/12/15 12:32:53;;;;;;;36.40;22.23;;;1.70;19.80;;;;;;5073785;28;20837;-59
2022/12/15 12:35:27;;;;;;;34.13;21.58;;;1.60;99.90;;;;;;5073132;28;20497;-58
2022/12/15 12:38:00;;;;;;;34.53;21.77;;;1.70;99.90;;;;;;5065189;28;20421;-59
2022/12/15 12:40:32;;;;;;;37.45;22.80;;;1.60;1.00;;;;;;5073306;28;20418;-59
2022/12/15 12:43:00;;;;;;;37.25;23.35;;;1.20;99.90;;;;;;5071917;28;20415;-57
2022/12/15 12:45:32;;;;;;;39.40;24.00;;;1.50;99.90;;;;;;5056579;28;20438;-59
2022/12/15 12:48:05;;;;;;;34.83;21.65;;;1.30;99.90;;;;;;5064926;28;20419;-61
2022/12/15 12:50:33;;;;;;;34.28;22.50;;;1.20;99.90;;;;;;5072499;28;20950;-56
2022/12/15 12:53:03;;;;;;;35.03;22.25;;;1.40;99.90;;;;;;5073404;28;20407;-61
2022/12/15 12:55:38;;;;;;;35.63;23.45;;;1.70;99.90;;;;;;5073148;28;20420;-60
2022/12/15 12:58:34;;;;;;;34.15;22.08;;;1.80;99.90;;;;;;5073166;28;20569;-60
2022/12/15 13:01:16;;;;;;;36.28;22.20;;;2.00;76.60;;;;;;5072706;28;20985;-61
2022/12/15 13:03:43;;;;;;;32.53;21.35;;;2.20;4.60;;;;;;5063850;28;20421;-63
2022/12/15 13:06:22;;;;;;;32.30;21.13;;;2.20;99.90;;;;;;5064354;28;20407;-62
2022/12/15 13:08:54;;;;;;;34.20;22.35;;;2.30;64.30;;;;;;5064418;28;20423;-58
2022/12/15 13:11:57;;;;;;;32.92;21.40;;;2.20;99.90;;;;;;5072923;28;20416;-60
2022/12/15 13:14:46;;;;;;;35.53;22.00;;;1.90;99.90;;;;;;5072450;28;20435;-58
2022/12/15 13:17:19;;;;;;;36.47;23.27;;;1.80;99.90;;;;;;5072351;28;20426;-55
2022/12/15 13:20:18;;;;;;;31.13;18.83;;;1.80;1.00;;;;;;5063776;28;20413;-58
2022/12/15 13:22:45;;;;;;;29.77;20.17;;;2.00;99.90;;;;;;5056014;28;20456;-60
2022/12/15 13:25:37;;;;;;;29.23;20.05;;;2.10;1.00;;;;;;5052121;28;20418;-58
2022/12/15 13:28:29;;;;;;;31.30;20.40;;;2.20;1.00;;;;;;5051791;28;20409;-59
2022/12/15 13:31:34;;;;;;;30.30;20.02;;;2.20;1.00;;;;;;5065370;28;20415;-58
2022/12/15 13:34:12;;;;;;;30.50;19.13;;;2.20;56.30;;;;;;5072418;28;20477;-58
2022/12/15 13:36:48;;;;;;;33.22;20.63;;;2.30;99.90;;;;;;5067807;28;20936;-58
2022/12/15 13:39:35;;;;;;;32.33;20.57;;;1.90;1.00;;;;;;5064725;28;20505;-59
2022/12/15 13:42:26;;;;;;;31.83;19.55;;;1.70;1.00;;;;;;5072011;28;20518;-60
2022/12/15 13:44:57;;;;;;;29.08;19.33;;;1.90;1.00;;;;;;5071922;28;20426;-59
2022/12/15 13:47:28;;;;;;;29.60;19.20;;;2.00;1.00;;;;;;5071852;28;20408;-59
2022/12/15 13:50:00;;;;;;;35.97;20.97;;;2.10;1.00;;;;;;5072409;28;21114;-56
2022/12/15 13:52:29;;;;;;;36.53;21.67;;;2.10;1.00;;;;;;5071385;28;20502;-59
2022/12/15 13:54:59;;;;;;;37.58;23.73;;;2.20;99.90;;;;;;5060969;28;20436;-59
2022/12/15 13:57:31;;;;;;;39.47;25.05;;;2.20;99.90;;;;;;5058950;28;20429;-59
2022/12/15 14:00:04;;;;;;;37.33;22.88;;;2.30;99.90;;;;;;5060514;28;20417;-58
2022/12/15 14:02:32;;;;;;;37.10;23.23;;;2.30;99.90;;;;;;5051274;28;20417;-59
2022/12/15 14:05:16;;;;;;;35.72;22.35;;;2.30;99.90;;;;;;5051727;28;20413;-60
2022/12/15 14:07:46;;;;;;;38.75;23.25;;;2.30;99.90;;;;;;5059783;28;20414;-59
2022/12/15 14:10:19;;;;;;;35.33;22.52;;;2.30;99.90;;;;;;5051494;28;20417;-58
2022/12/15 14:12:49;;;;;;;35.80;22.77;;;2.20;99.90;;;;;;5051615;28;20911;-59
2022/12/15 14:15:19;;;;;;;36.47;21.75;;;2.10;1.00;;;;;;5051022;28;20891;-58
2022/12/15 14:17:50;;;;;;;36.58;22.02;;;2.10;1.00;;;;;;5051606;28;20428;-59
2022/12/15 14:20:20;;;;;;;34.92;22.33;;;2.20;1.00;;;;;;5051139;28;20462;-58
2022/12/15 14:22:49;;;;;;;31.40;19.60;;;2.20;99.90;;;;;;5051606;28;20420;-59
2022/12/15 14:25:19;;;;;;;33.38;21.05;;;2.00;99.90;;;;;;5051027;28;20479;-59
2022/12/15 14:27:48;;;;;;;38.22;23.92;;;1.90;99.90;;;;;;5051258;28;20409;-59
2022/12/15 14:30:21;;;;;;;40.60;24.50;;;1.90;99.90;;;;;;5051414;28;20425;-59
2022/12/15 14:32:51;;;;;;;36.67;22.92;;;1.90;1.00;;;;;;5056775;28;20890;-59
2022/12/15 14:35:24;;;;;;;35.65;23.10;;;1.90;1.00;;;;;;5058730;28;20471;-59
2022/12/15 14:37:51;;;;;;;34.88;22.98;;;1.90;1.00;;;;;;5067373;28;20427;-59
2022/12/15 14:40:19;;;;;;;38.75;22.73;;;1.80;8.80;;;;;;5050810;28;20417;-59
2022/12/15 14:42:47;;;;;;;39.47;23.65;;;1.80;23.60;;;;;;5050943;28;20413;-59
2022/12/15 14:45:19;;;;;;;37.40;23.02;;;1.80;46.90;;;;;;5051037;28;20421;-63
2022/12/15 14:47:52;;;;;;;40.07;23.93;;;1.80;95.30;;;;;;5066144;28;20432;-60
2022/12/15 14:50:21;;;;;;;48.92;30.08;;;1.70;99.50;;;;;;5070544;28;20434;-56
2022/12/15 14:52:52;;;;;;;41.97;25.03;;;1.70;99.90;;;;;;5071476;28;20423;-58
2022/12/15 14:55:34;;;;;;;36.20;22.23;;;1.70;99.90;;;;;;5071637;28;20426;-58
2022/12/15 14:58:22;;;;;;;43.95;24.98;;;1.60;99.90;;;;;;5068723;28;20428;-58
2022/12/15 15:00:50;;;;;;;47.28;27.08;;;1.50;99.90;;;;;;5070941;28;20423;-58
2022/12/15 15:03:21;;;;;;;43.33;24.60;;;1.40;99.90;;;;;;5070505;28;20419;-58
2022/12/15 15:05:50;;;;;;;42.28;24.67;;;1.30;99.90;;;;;;5070819;28;20422;-58
2022/12/15 15:08:27;;;;;;;42.65;25.02;;;1.30;99.90;;;;;;5066471;28;20413;-54
2022/12/15 15:10:55;;;;;;;42.72;24.92;;;1.30;99.90;;;;;;5051535;28;20413;-57
2022/12/15 15:13:26;;;;;;;45.03;26.67;;;1.20;99.90;;;;;;5051247;28;20491;-57
2022/12/15 15:15:54;;;;;;;50.33;29.23;;;1.10;99.90;;;;;;5051057;28;20471;-58
2022/12/15 15:18:24;;;;;;;53.25;30.20;;;1.00;99.90;;;;;;5051147;28;20425;-54